createdAt,value
2022-11-23T00:02:08.611Z,23.37
2022-11-23T00:04:45.686Z,22.80
2022-11-23T00:07:19.091Z,23.00
2022-11-23T00:09:52.595Z,24.20
2022-11-23T00:12:26.097Z,24.53
2022-11-23T00:14:59.369Z,23.20
2022-11-23T00:17:32.679Z,23.57
2022-11-23T00:20:06.468Z,22.10
2022-11-23T00:22:39.685Z,21.30
2022-11-23T00:25:13.310Z,22.70
2022-11-23T00:27:46.997Z,22.97
2022-11-23T00:30:21.307Z,22.63
2022-11-23T00:32:55.781Z,21.90
2022-11-23T00:35:29.242Z,22.53
2022-11-23T00:38:02.420Z,22.33
2022-11-23T00:40:35.924Z,21.27
2022-11-23T00:43:12.596Z,20.83
2022-11-23T00:45:46.007Z,20.40
2022-11-23T00:48:19.863Z,21.40
2022-11-23T00:50:53.184Z,21.33
2022-11-23T00:53:26.660Z,23.77
2022-11-23T00:56:00.155Z,20.27
2022-11-23T00:58:34.186Z,22.03
2022-11-23T01:01:12.226Z,21.27
2022-11-23T01:03:47.446Z,20.43
2022-11-23T01:06:22.936Z,20.83
2022-11-23T01:09:00.147Z,21.73
2022-11-23T01:11:34.851Z,20.90
2022-11-23T01:14:08.008Z,21.43
2022-11-23T01:16:43.484Z,20.07
2022-11-23T01:19:19.138Z,19.97
2022-11-23T01:22:42.503Z,20.97
2022-11-23T01:25:46.758Z,19.27
2022-11-23T01:28:20.053Z,20.00
2022-11-23T01:30:53.228Z,19.93
2022-11-23T01:33:31.638Z,21.33
2022-11-23T01:36:12.363Z,19.77
2022-11-23T01:38:46.767Z,20.83
2022-11-23T01:41:23.069Z,18.90
2022-11-23T01:44:33.100Z,19.83
2022-11-23T01:47:09.110Z,18.37
2022-11-23T01:49:47.162Z,18.37
2022-11-23T01:52:23.462Z,19.30
2022-11-23T01:55:08.635Z,19.33
2022-11-23T01:57:45.630Z,19.30
2022-11-23T02:00:19.161Z,18.47
2022-11-23T02:02:56.960Z,18.37
2022-11-23T02:05:36.091Z,19.00
2022-11-23T02:08:12.272Z,18.97
2022-11-23T02:10:45.792Z,19.50
2022-11-23T02:13:18.924Z,18.53
2022-11-23T02:15:54.462Z,18.30
2022-11-23T02:18:30.856Z,17.30
2022-11-23T02:21:05.517Z,19.17
2022-11-23T02:23:48.244Z,18.57
2022-11-23T02:26:26.308Z,17.87
2022-11-23T02:29:05.937Z,17.60
2022-11-23T02:31:39.576Z,18.07
2022-11-23T02:34:15.452Z,18.17
2022-11-23T02:36:52.276Z,16.87
2022-11-23T02:39:32.490Z,16.67
2022-11-23T02:42:07.789Z,18.23
2022-11-23T02:44:48.815Z,16.77
2022-11-23T02:47:22.011Z,17.63
2022-11-23T02:49:55.406Z,18.37
2022-11-23T02:52:28.769Z,19.40
2022-11-23T02:55:04.096Z,18.17
2022-11-23T02:57:38.337Z,18.70
2022-11-23T03:00:13.791Z,18.57
2022-11-23T03:03:22.482Z,18.83
2022-11-23T03:06:11.998Z,17.53
2022-11-23T03:08:45.276Z,17.90
2022-11-23T03:11:19.088Z,17.53
2022-11-23T03:13:53.585Z,18.53
2022-11-23T03:16:50.509Z,17.30
2022-11-23T03:19:49.542Z,18.47
2022-11-23T03:23:08.544Z,19.00
2022-11-23T03:26:00.210Z,18.73
2022-11-23T03:28:39.590Z,18.23
2022-11-23T03:31:13.427Z,18.87
2022-11-23T03:33:51.276Z,18.57
2022-11-23T03:36:24.950Z,18.70
2022-11-23T03:38:58.067Z,20.57
2022-11-23T03:41:43.620Z,30.07
2022-11-23T03:44:16.942Z,26.23
2022-11-23T03:46:52.103Z,27.40
2022-11-23T03:49:30.545Z,22.13
2022-11-23T03:52:04.462Z,19.80
2022-11-23T03:54:39.009Z,19.17
2022-11-23T03:57:12.664Z,19.97
2022-11-23T03:59:46.411Z,19.10
2022-11-23T04:02:20.519Z,19.10
2022-11-23T04:05:07.613Z,19.13
2022-11-23T04:08:06.619Z,19.97
2022-11-23T04:10:45.037Z,20.13
2022-11-23T04:13:25.551Z,20.07
2022-11-23T04:15:58.954Z,19.67
2022-11-23T04:18:32.198Z,19.07
2022-11-23T04:21:05.667Z,20.03
2022-11-23T04:23:38.924Z,21.00
2022-11-23T04:26:14.252Z,20.07
2022-11-23T04:28:48.780Z,19.50
2022-11-23T04:31:22.079Z,20.20
2022-11-23T04:34:04.458Z,21.47
2022-11-23T04:36:40.965Z,20.17
2022-11-23T04:39:16.899Z,19.23
2022-11-23T04:44:41.311Z,19.45
2022-11-23T04:47:15.088Z,21.33
2022-11-23T04:49:53.613Z,21.23
2022-11-23T04:52:32.832Z,21.63
2022-11-23T04:55:06.503Z,20.57
2022-11-23T04:57:40.283Z,20.80
2022-11-23T05:00:17.218Z,22.07
2022-11-23T05:02:54.634Z,21.37
2022-11-23T05:05:31.790Z,21.77
2022-11-23T05:08:08.629Z,20.70
2022-11-23T05:11:04.720Z,21.90
2022-11-23T05:13:38.304Z,20.57
2022-11-23T05:16:11.549Z,21.53
2022-11-23T05:18:47.137Z,20.67
2022-11-23T05:21:20.794Z,20.43
2022-11-23T05:23:54.963Z,22.47
2022-11-23T05:26:30.511Z,21.60
2022-11-23T05:29:03.849Z,21.53
2022-11-23T05:31:41.345Z,21.50
2022-11-23T05:34:18.099Z,20.83
2022-11-23T05:36:52.383Z,20.23
2022-11-23T05:39:26.830Z,21.33
2022-11-23T05:42:00.252Z,19.27
2022-11-23T05:44:46.082Z,20.67
2022-11-23T05:47:25.153Z,20.20
2022-11-23T05:49:58.771Z,20.53
2022-11-23T05:52:33.363Z,19.33
2022-11-23T05:55:07.391Z,19.80
2022-11-23T05:57:43.534Z,19.20
2022-11-23T06:00:19.516Z,19.53
2022-11-23T06:02:54.910Z,19.13
2022-11-23T06:05:29.433Z,19.27
2022-11-23T06:08:02.621Z,20.13
2022-11-23T06:10:36.016Z,19.43
2022-11-23T06:13:09.044Z,18.80
2022-11-23T06:15:42.272Z,19.00
2022-11-23T06:18:16.845Z,19.03
2022-11-23T06:20:53.749Z,19.23
2022-11-23T06:23:26.910Z,17.77
2022-11-23T06:26:02.868Z,18.40
2022-11-23T06:28:38.571Z,18.07
2022-11-23T06:31:12.315Z,18.33
2022-11-23T06:33:48.334Z,19.23
2022-11-23T06:36:21.378Z,17.23
2022-11-23T06:38:56.248Z,19.83
2022-11-23T06:41:32.634Z,16.63
2022-11-23T06:44:07.284Z,17.80
2022-11-23T06:46:44.976Z,17.27
2022-11-23T06:49:20.729Z,18.07
2022-11-23T06:52:09.665Z,17.27
2022-11-23T06:54:43.002Z,16.80
2022-11-23T06:57:16.115Z,18.20
2022-11-23T06:59:49.485Z,17.07
2022-11-23T07:02:23.929Z,16.93
2022-11-23T07:04:57.230Z,20.73
2022-11-23T07:07:30.867Z,23.63
2022-11-23T07:10:12.279Z,21.43
2022-11-23T07:13:10.116Z,20.93
2022-11-23T07:15:46.260Z,21.87
2022-11-23T07:18:19.413Z,20.13
2022-11-23T07:20:58.559Z,21.57
2022-11-23T07:23:32.231Z,21.73
2022-11-23T07:26:06.773Z,24.80
2022-11-23T07:28:41.388Z,25.53
2022-11-23T07:31:16.475Z,22.90
2022-11-23T07:33:49.938Z,21.67
2022-11-23T07:36:23.097Z,30.90
2022-11-23T07:38:56.701Z,21.27
2022-11-23T07:41:30.009Z,17.67
2022-11-23T07:44:29.115Z,18.83
2022-11-23T07:47:07.029Z,18.07
2022-11-23T07:49:40.001Z,24.03
2022-11-23T07:52:13.487Z,19.73
2022-11-23T07:54:46.638Z,21.27
2022-11-23T07:57:27.200Z,20.37
2022-11-23T08:00:03.789Z,21.27
2022-11-23T08:03:25.673Z,22.95
2022-11-23T08:06:26.108Z,21.27
2022-11-23T08:11:30.732Z,19.43
2022-11-23T08:14:03.905Z,19.83
2022-11-23T08:16:37.295Z,16.37
2022-11-23T08:19:10.809Z,16.57
2022-11-23T08:21:50.215Z,15.97
2022-11-23T08:24:23.272Z,20.50
2022-11-23T08:26:57.538Z,20.17
2022-11-23T08:29:30.769Z,16.93
2022-11-23T08:32:06.715Z,16.15
2022-11-23T08:34:39.825Z,23.97
2022-11-23T08:37:12.973Z,22.93
2022-11-23T08:39:46.669Z,23.27
2022-11-23T08:42:22.067Z,22.93
2022-11-23T08:44:55.202Z,19.30
2022-11-23T08:47:28.596Z,23.17
2022-11-23T08:50:01.613Z,25.23
2022-11-23T08:52:35.084Z,20.03
2022-11-23T08:55:09.105Z,23.97
2022-11-23T08:57:42.301Z,26.75
2022-11-23T09:00:18.157Z,22.23
2022-11-23T09:02:52.621Z,29.97
2022-11-23T09:05:26.027Z,26.30
2022-11-23T09:08:00.918Z,26.03
2022-11-23T09:10:34.075Z,20.23
2022-11-23T09:13:07.177Z,21.87
2022-11-23T09:15:40.466Z,18.37
2022-11-23T09:18:13.906Z,16.33
2022-11-23T09:20:46.893Z,16.93
2022-11-23T09:23:22.939Z,17.57
2022-11-23T09:25:55.895Z,15.97
2022-11-23T09:28:29.212Z,17.50
2022-11-23T09:31:06.181Z,16.60
2022-11-23T09:33:39.246Z,16.03
2022-11-23T09:36:12.594Z,16.13
2022-11-23T09:38:56.253Z,16.67
2022-11-23T09:42:02.255Z,16.87
2022-11-23T09:44:49.499Z,17.60
2022-11-23T09:47:40.529Z,19.70
2022-11-23T09:50:23.504Z,20.77
2022-11-23T09:52:59.281Z,19.37
2022-11-23T09:55:39.579Z,18.10
2022-11-23T09:58:18.007Z,18.57
2022-11-23T10:00:57.397Z,19.33
2022-11-23T10:03:34.537Z,22.03
2022-11-23T10:06:20.816Z,20.83
2022-11-23T10:09:08.089Z,18.43
2022-11-23T10:12:05.519Z,17.83
2022-11-23T10:14:53.220Z,18.57
2022-11-23T10:17:42.554Z,18.70
2022-11-23T10:20:35.613Z,19.17
2022-11-23T10:23:19.830Z,18.07
2022-11-23T10:25:54.886Z,18.53
2022-11-23T10:28:31.700Z,19.43
2022-11-23T10:31:14.521Z,18.63
2022-11-23T10:33:56.864Z,19.50
2022-11-23T10:39:03.783Z,18.97
2022-11-23T10:41:36.731Z,20.53
2022-11-23T10:44:28.533Z,20.37
2022-11-23T10:47:01.472Z,21.13
2022-11-23T10:49:40.192Z,22.17
2022-11-23T10:52:34.133Z,21.27
2022-11-23T10:55:12.125Z,22.57
2022-11-23T10:57:48.273Z,21.07
2022-11-23T11:00:30.228Z,20.77
2022-11-23T11:03:22.595Z,21.90
2022-11-23T11:06:14.658Z,21.17
2022-11-23T11:08:55.801Z,22.17
2022-11-23T11:11:33.829Z,23.07
2022-11-23T11:14:08.524Z,21.33
2022-11-23T11:16:50.864Z,22.57
2022-11-23T11:22:04.175Z,21.70
2022-11-23T11:24:45.386Z,21.90
2022-11-23T11:27:22.695Z,22.83
2022-11-23T11:30:00.652Z,21.83
2022-11-23T11:32:43.389Z,21.70
2022-11-23T11:35:21.340Z,22.40
2022-11-23T11:37:57.653Z,21.73
2022-11-23T11:40:35.046Z,19.43
2022-11-23T11:43:13.318Z,20.10
2022-11-23T11:48:46.765Z,21.60
2022-11-23T11:51:29.611Z,19.23
2022-11-23T11:54:13.030Z,21.23
2022-11-23T11:56:48.253Z,20.53
2022-11-23T11:59:28.671Z,21.20
2022-11-23T12:02:16.138Z,20.30
2022-11-23T12:04:56.849Z,21.23
2022-11-23T12:07:34.699Z,19.57
2022-11-23T12:10:17.033Z,21.03
2022-11-23T12:12:49.944Z,19.65
2022-11-23T12:15:48.223Z,20.77
2022-11-23T12:19:01.274Z,20.47
2022-11-23T12:21:54.505Z,19.53
2022-11-23T12:24:43.480Z,20.20
2022-11-23T12:27:27.177Z,18.67
2022-11-23T12:30:16.137Z,20.03
2022-11-23T12:33:00.660Z,19.80
2022-11-23T12:35:56.165Z,21.63
2022-11-23T12:38:37.101Z,20.90
2022-11-23T12:41:23.598Z,20.40
2022-11-23T12:44:18.265Z,19.13
2022-11-23T12:46:56.190Z,19.53
2022-11-23T12:49:40.365Z,20.63
2022-11-23T12:52:32.623Z,24.77
2022-11-23T12:55:19.815Z,25.70
2022-11-23T12:58:01.573Z,25.10
2022-11-23T13:00:40.188Z,29.93
2022-11-23T13:03:52.743Z,29.80
2022-11-23T13:07:37.485Z,28.07
2022-11-23T13:10:30.963Z,26.63
2022-11-23T13:13:25.176Z,26.20
2022-11-23T13:16:28.486Z,27.47
2022-11-23T13:19:19.418Z,27.90
2022-11-23T13:21:52.508Z,33.37
2022-11-23T13:24:36.504Z,23.23
2022-11-23T13:27:44.417Z,20.43
2022-11-23T13:30:52.059Z,19.70
2022-11-23T13:33:40.018Z,20.00
2022-11-23T13:37:10.581Z,20.20
2022-11-23T13:40:04.707Z,18.10
2022-11-23T13:42:37.779Z,19.03
2022-11-23T13:45:30.692Z,18.10
2022-11-23T13:48:48.983Z,19.07
2022-11-23T13:51:13.080Z,19.03
2022-11-23T13:53:52.523Z,20.90
2022-11-23T13:56:35.320Z,22.93
2022-11-23T13:59:32.604Z,22.73
2022-11-23T14:02:29.718Z,21.63
2022-11-23T14:05:53.678Z,21.70
2022-11-23T14:08:27.691Z,21.83
2022-11-23T14:11:02.197Z,21.47
2022-11-23T14:13:37.064Z,21.97
2022-11-23T14:16:15.113Z,22.40
2022-11-23T14:19:02.552Z,22.07
2022-11-23T14:21:55.404Z,23.97
2022-11-23T14:24:51.658Z,24.80
2022-11-23T14:27:47.351Z,23.63
2022-11-23T14:30:41.271Z,28.77
2022-11-23T14:33:44.425Z,26.47
2022-11-23T14:36:30.724Z,27.57
2022-11-23T14:39:28.424Z,24.80
2022-11-23T14:42:05.140Z,27.63
2022-11-23T14:44:41.063Z,22.67
2022-11-23T14:47:15.123Z,23.93
2022-11-23T14:49:54.373Z,24.37
2022-11-23T14:52:31.323Z,23.97
2022-11-23T14:55:07.473Z,24.63
2022-11-23T14:57:49.439Z,24.23
2022-11-23T15:00:37.209Z,25.32
2022-11-23T15:03:48.951Z,23.73
2022-11-23T15:06:14.524Z,26.50
2022-11-23T15:08:54.064Z,26.20
2022-11-23T15:11:30.612Z,25.63
2022-11-23T15:14:03.680Z,26.37
2022-11-23T15:16:43.392Z,26.43
2022-11-23T15:19:30.127Z,26.90
2022-11-23T15:22:03.204Z,26.13
2022-11-23T15:24:36.092Z,25.97
2022-11-23T15:27:17.964Z,28.57
2022-11-23T15:29:57.657Z,28.30
2022-11-23T15:32:34.384Z,27.93
2022-11-23T15:35:14.029Z,28.10
2022-11-23T15:37:50.328Z,29.73
2022-11-23T15:40:24.120Z,29.93
2022-11-23T15:42:57.646Z,28.47
2022-11-23T15:45:58.659Z,30.93
2022-11-23T15:48:35.336Z,30.53
2022-11-23T15:51:10.056Z,30.83
2022-11-23T15:53:51.504Z,31.40
2022-11-23T15:56:28.783Z,30.83
2022-11-23T15:59:05.298Z,30.20
2022-11-23T16:01:41.654Z,30.30
2022-11-23T16:04:30.412Z,32.83
2022-11-23T16:07:17.345Z,32.10
2022-11-23T16:09:53.107Z,32.40
2022-11-23T16:12:29.496Z,35.13
2022-11-23T16:15:41.699Z,33.83
2022-11-23T16:18:25.789Z,31.40
2022-11-23T16:21:01.579Z,32.63
2022-11-23T16:23:49.700Z,34.37
2022-11-23T16:26:31.405Z,31.33
2022-11-23T16:29:06.084Z,32.70
2022-11-23T16:31:42.307Z,31.93
2022-11-23T16:34:19.467Z,30.63
2022-11-23T16:36:53.268Z,30.30
2022-11-23T16:39:27.913Z,29.90
2022-11-23T16:42:00.773Z,33.00
2022-11-23T16:44:38.734Z,28.83
2022-11-23T16:47:25.176Z,27.70
2022-11-23T16:49:58.924Z,28.63
2022-11-23T16:52:33.421Z,28.17
2022-11-23T16:55:07.466Z,27.23
2022-11-23T16:57:41.591Z,27.40
2022-11-23T17:00:21.055Z,28.23
2022-11-23T17:02:54.102Z,26.90
2022-11-23T17:05:27.066Z,29.07
2022-11-23T17:08:00.166Z,27.27
2022-11-23T17:10:34.154Z,27.93
2022-11-23T17:13:21.836Z,26.57
2022-11-23T17:15:55.699Z,27.07
2022-11-23T17:18:28.643Z,29.23
2022-11-23T17:21:01.626Z,27.60
2022-11-23T17:23:34.869Z,27.17
2022-11-23T17:26:30.047Z,27.40
2022-11-23T17:29:06.146Z,27.80
2022-11-23T17:31:43.708Z,28.83
2022-11-23T17:34:17.452Z,27.27
2022-11-23T17:36:53.445Z,29.83
2022-11-23T17:39:28.709Z,25.90
2022-11-23T17:42:05.111Z,26.80
2022-11-23T17:44:41.100Z,25.90
2022-11-23T17:47:29.812Z,25.17
2022-11-23T17:50:03.417Z,24.93
2022-11-23T17:52:36.565Z,24.13
2022-11-23T17:55:12.675Z,23.17
2022-11-23T17:57:46.697Z,23.13
2022-11-23T18:00:23.752Z,23.40
2022-11-23T18:02:56.765Z,26.10
2022-11-23T18:05:30.080Z,23.77
2022-11-23T18:08:03.076Z,23.57
2022-11-23T18:10:35.910Z,24.83
2022-11-23T18:13:10.126Z,24.83
2022-11-23T18:15:45.354Z,24.60
2022-11-23T18:18:19.963Z,24.77
2022-11-23T18:20:53.174Z,23.47
2022-11-23T18:23:26.188Z,22.37
2022-11-23T18:26:03.581Z,22.80
2022-11-23T18:28:36.466Z,24.07
2022-11-23T18:31:10.852Z,22.20
2022-11-23T18:33:43.997Z,22.40
2022-11-23T18:36:17.649Z,21.97
2022-11-23T18:38:50.800Z,21.73
2022-11-23T18:41:23.860Z,23.73
2022-11-23T18:43:56.749Z,24.67
2022-11-23T18:46:29.659Z,25.33
2022-11-23T18:49:02.656Z,24.97
2022-11-23T18:51:37.218Z,25.40
2022-11-23T18:54:10.352Z,24.47
2022-11-23T18:56:43.340Z,24.90
2022-11-23T18:59:42.016Z,26.37
2022-11-23T19:02:10.045Z,25.67
2022-11-23T19:04:43.286Z,26.53
2022-11-23T19:07:16.254Z,26.53
2022-11-23T19:09:50.877Z,25.17
2022-11-23T19:12:24.066Z,24.73
2022-11-23T19:14:57.030Z,24.67
2022-11-23T19:17:30.006Z,25.37
2022-11-23T19:20:04.003Z,27.97
2022-11-23T19:22:37.228Z,27.33
2022-11-23T19:25:11.649Z,28.17
2022-11-23T19:27:44.554Z,26.73
2022-11-23T19:30:19.348Z,26.20
2022-11-23T19:32:52.169Z,24.67
2022-11-23T19:35:25.172Z,24.60
2022-11-23T19:37:58.638Z,24.80
2022-11-23T19:40:32.479Z,22.87
2022-11-23T19:43:05.395Z,28.60
2022-11-23T19:45:38.260Z,31.43
2022-11-23T19:48:11.723Z,25.80
2022-11-23T19:50:44.570Z,25.93
2022-11-23T19:53:17.550Z,26.03
2022-11-23T19:55:50.380Z,25.27
2022-11-23T19:58:23.505Z,25.27
2022-11-23T20:01:02.253Z,25.40
2022-11-23T20:03:38.417Z,26.27
2022-11-23T20:06:17.522Z,27.03
2022-11-23T20:08:54.984Z,26.40
2022-11-23T20:11:29.752Z,27.03
2022-11-23T20:14:03.131Z,26.83
2022-11-23T20:16:36.279Z,29.07
2022-11-23T20:19:10.496Z,29.87
2022-11-23T20:21:43.555Z,30.43
2022-11-23T20:24:17.086Z,32.93
2022-11-23T20:26:49.980Z,31.60
2022-11-23T20:29:23.160Z,33.03
2022-11-23T20:31:56.657Z,32.43
2022-11-23T20:34:31.348Z,31.67
2022-11-23T20:37:05.956Z,29.10
2022-11-23T20:39:39.030Z,26.10
2022-11-23T20:42:14.874Z,27.10
2022-11-23T20:44:47.844Z,26.07
2022-11-23T20:47:20.700Z,27.00
2022-11-23T20:49:53.635Z,26.20
2022-11-23T20:52:28.757Z,27.93
2022-11-23T20:55:02.187Z,27.47
2022-11-23T20:57:38.419Z,29.43
2022-11-23T21:00:16.977Z,29.13
2022-11-23T21:02:53.428Z,26.93
2022-11-23T21:05:26.487Z,29.10
2022-11-23T21:08:02.701Z,28.70
2022-11-23T21:11:22.820Z,30.43
2022-11-23T21:14:48.945Z,29.27
2022-11-23T21:17:55.230Z,27.83
2022-11-23T21:20:59.487Z,28.47
2022-11-23T21:23:54.035Z,30.23
2022-11-23T21:26:28.658Z,29.87
2022-11-23T21:29:02.987Z,29.47
2022-11-23T21:31:36.452Z,35.77
2022-11-23T21:34:12.436Z,40.10
2022-11-23T21:36:45.328Z,30.47
2022-11-23T21:39:18.812Z,30.60
2022-11-23T21:41:53.753Z,32.50
2022-11-23T21:44:26.624Z,30.63
2022-11-23T21:46:59.632Z,31.03
2022-11-23T21:49:32.731Z,32.47
2022-11-23T21:52:09.073Z,33.67
2022-11-23T21:54:47.323Z,32.17
2022-11-23T21:57:22.226Z,29.87
2022-11-23T21:59:55.046Z,30.90
2022-11-23T22:02:28.338Z,29.60
2022-11-23T22:05:04.218Z,30.83
2022-11-23T22:07:37.753Z,31.03
2022-11-23T22:10:11.755Z,29.97
2022-11-23T22:12:44.764Z,29.77
2022-11-23T22:15:17.909Z,29.80
2022-11-23T22:17:53.228Z,28.23
2022-11-23T22:20:26.309Z,28.93
2022-11-23T22:22:59.332Z,31.27
2022-11-23T22:25:33.489Z,29.17
2022-11-23T22:28:06.769Z,29.83
2022-11-23T22:30:39.703Z,30.87
2022-11-23T22:33:13.636Z,30.80
2022-11-23T22:35:46.444Z,32.63
2022-11-23T22:38:19.501Z,29.80
2022-11-23T22:40:52.290Z,31.37
2022-11-23T22:43:25.098Z,30.17
2022-11-23T22:46:05.378Z,31.13
2022-11-23T22:48:41.911Z,31.97
2022-11-23T22:51:16.622Z,32.00
2022-11-23T22:53:50.140Z,32.40
2022-11-23T22:56:23.823Z,31.20
2022-11-23T22:58:56.993Z,31.40
2022-11-23T23:01:32.082Z,31.13
2022-11-23T23:04:05.662Z,31.93
2022-11-23T23:06:39.095Z,31.67
2022-11-23T23:09:13.258Z,30.23
2022-11-23T23:11:46.170Z,32.47
2022-11-23T23:14:19.054Z,30.43
2022-11-23T23:16:52.785Z,29.27
2022-11-23T23:19:26.730Z,29.77
2022-11-23T23:21:59.631Z,29.47
2022-11-23T23:24:32.978Z,27.97
2022-11-23T23:27:06.319Z,29.73
2022-11-23T23:29:39.759Z,27.07
2022-11-23T23:32:13.625Z,29.10
2022-11-23T23:34:46.418Z,28.40
2022-11-23T23:37:23.602Z,26.63
2022-11-23T23:39:57.254Z,28.70
2022-11-23T23:42:30.149Z,27.50
2022-11-23T23:45:04.550Z,27.37
2022-11-23T23:47:37.776Z,24.13
2022-11-23T23:50:12.446Z,26.87
2022-11-23T23:52:45.465Z,25.03
2022-11-23T23:55:18.474Z,25.70
2022-11-23T23:57:51.223Z,24.43
